LFHP METAR and TAF | Updated Today

LFHP METAR

Le Puy-Loudes Airport

Observation time: 10 min. ago

LFHP 010800Z AUTO VRB04KT 9999 FEW020 SCT037 OVC070 11/08 Q1020

Need help? Read our tutorial on how to read METARs or read the parsed version below.

Le Puy-Loudes Airport (LFHP) METAR

  • Weather conditions on Sat, 01 Oct 2022 08:00:00 +0000 (10 min. ago):
  • Present conditions: Dry
  • Clouds: A few at 610 meters; scattered at 1128 meters; overcast sky at 2134 meters
  • Visibility: Greater than 10 km
  • Wind: Variable at 4 knots
  • Temperature: 11 celsius
  • Dew point: 8 celsius
  • Pressure: 1020 millibars
  • Remarks: None


Useful to know...